Time;durP1;ratioP1;P1;durP2;ratioP2;P2;SDS_P1;SDS_P2;PMS_P1;PMS_P2;Temp;Humidity;BMP_temperature;BMP_pressure;BME280_temperature;BME280_humidity;BME280_pressure;Samples;Min_cycle;Max_cycle;Signal;HPM_P1;HPM_P2
2021/08/27 00:02:09;;;;;;;6.97;1.98;;;;;;;;;;5020926;28;20045;-83
2021/08/27 00:04:35;;;;;;;5.65;1.83;;;;;;;;;;5022411;28;20070;-86
2021/08/27 00:07:01;;;;;;;7.18;1.95;;;;;;;;;;5021545;28;20046;-82
2021/08/27 00:09:27;;;;;;;5.40;1.88;;;;;;;;;;5024178;28;20069;-82
2021/08/27 00:11:53;;;;;;;7.07;2.10;;;;;;;;;;5003489;28;20041;-82
2021/08/27 00:14:20;;;;;;;9.25;2.38;;;;;;;;;;5020775;28;20050;-87
2021/08/27 00:16:46;;;;;;;11.80;1.80;;;;;;;;;;5000104;28;20050;-81
2021/08/27 00:19:12;;;;;;;6.28;1.67;;;;;;;;;;5018602;28;20081;-84
2021/08/27 00:21:38;;;;;;;6.53;1.85;;;;;;;;;;5017709;28;20446;-82
2021/08/27 00:24:06;;;;;;;4.82;1.38;;;;;;;;;;5022028;28;20046;-82
2021/08/27 00:26:32;;;;;;;9.45;1.83;;;;;;;;;;5020718;28;20048;-82
2021/08/27 00:28:58;;;;;;;5.72;1.48;;;;;;;;;;5023640;28;20057;-86
2021/08/27 00:31:24;;;;;;;7.55;1.90;;;;;;;;;;5016960;28;20046;-81
2021/08/27 00:33:51;;;;;;;7.22;1.50;;;;;;;;;;5001867;28;20052;-82
2021/08/27 00:36:17;;;;;;;8.07;2.00;;;;;;;;;;5024594;28;20049;-82
2021/08/27 00:38:43;;;;;;;7.03;1.90;;;;;;;;;;5003826;28;20041;-81
2021/08/27 00:41:09;;;;;;;5.07;1.63;;;;;;;;;;5018797;28;20046;-82
2021/08/27 00:43:35;;;;;;;7.15;1.75;;;;;;;;;;5022749;28;20037;-82
2021/08/27 00:46:01;;;;;;;7.57;2.05;;;;;;;;;;5023726;28;20500;-87
2021/08/27 00:48:27;;;;;;;6.40;1.90;;;;;;;;;;5022268;28;20049;-81
2021/08/27 00:50:54;;;;;;;7.55;1.52;;;;;;;;;;5003440;28;20501;-82
2021/08/27 00:53:20;;;;;;;7.00;1.73;;;;;;;;;;5019835;28;20037;-81
2021/08/27 00:55:46;;;;;;;10.80;2.25;;;;;;;;;;5004143;28;20042;-82
2021/08/27 00:58:13;;;;;;;6.25;2.05;;;;;;;;;;5021834;28;20052;-81
2021/08/27 01:00:39;;;;;;;10.23;2.45;;;;;;;;;;5018938;28;20042;-82
2021/08/27 01:03:05;;;;;;;6.50;1.70;;;;;;;;;;5016419;28;20177;-81
2021/08/27 01:05:32;;;;;;;10.27;1.98;;;;;;;;;;5021178;28;20128;-82
2021/08/27 01:08:13;;;;;;;7.53;2.10;;;;;;;;;;5021883;28;20123;-86
2021/08/27 01:10:45;;;;;;;5.32;1.65;;;;;;;;;;5020130;28;20045;-82
2021/08/27 01:13:13;;;;;;;10.25;1.70;;;;;;;;;;5016554;28;20045;-82
2021/08/27 01:15:39;;;;;;;6.95;1.70;;;;;;;;;;5022177;28;20552;-83
2021/08/27 01:18:11;;;;;;;7.07;1.85;;;;;;;;;;5000334;28;20091;-81
2021/08/27 01:20:47;;;;;;;5.20;1.55;;;;;;;;;;5006769;28;20048;-82
2021/08/27 01:23:22;;;;;;;4.80;1.40;;;;;;;;;;5003175;28;20053;-81
2021/08/27 01:25:48;;;;;;;;;;;;;;;;;;5022343;28;20046;-86
2021/08/27 01:28:15;;;;;;;4.85;1.67;;;;;;;;;;5002728;28;19924;-82
2021/08/27 01:30:44;;;;;;;6.50;1.77;;;;;;;;;;5003441;28;20053;-82
2021/08/27 01:33:13;;;;;;;7.95;2.00;;;;;;;;;;5003909;28;20103;-84
2021/08/27 01:35:40;;;;;;;6.85;1.85;;;;;;;;;;5007618;28;20377;-84
2021/08/27 01:38:09;;;;;;;8.52;2.13;;;;;;;;;;5018903;28;20045;-82
2021/08/27 01:40:37;;;;;;;7.18;1.52;;;;;;;;;;5019761;28;20485;-82
2021/08/27 01:43:05;;;;;;;8.18;1.75;;;;;;;;;;5018760;28;20050;-83
2021/08/27 01:45:32;;;;;;;7.65;1.92;;;;;;;;;;5017653;28;20137;-82
2021/08/27 01:47:59;;;;;;;8.63;1.98;;;;;;;;;;5017585;28;20057;-86
2021/08/27 01:50:25;;;;;;;5.00;1.40;;;;;;;;;;5005204;28;20073;-81
2021/08/27 01:52:52;;;;;;;8.52;1.90;;;;;;;;;;4999912;28;20088;-81
2021/08/27 01:55:20;;;;;;;5.82;1.67;;;;;;;;;;5028992;28;20223;-82
2021/08/27 01:57:46;;;;;;;8.35;1.98;;;;;;;;;;5010590;28;20037;-81
2021/08/27 02:00:13;;;;;;;5.47;1.73;;;;;;;;;;5005385;28;20045;-83
2021/08/27 02:02:39;;;;;;;8.27;1.60;;;;;;;;;;5022536;28;20099;-84
2021/08/27 02:05:07;;;;;;;5.40;1.52;;;;;;;;;;5024761;28;20079;-82
2021/08/27 02:07:33;;;;;;;4.03;1.20;;;;;;;;;;5007625;28;20077;-82
2021/08/27 02:10:01;;;;;;;3.95;1.40;;;;;;;;;;5004748;28;20068;-90
2021/08/27 02:12:27;;;;;;;4.50;1.30;;;;;;;;;;5021892;28;20149;-82
2021/08/27 02:14:57;;;;;;;5.72;1.40;;;;;;;;;;5023309;28;20037;-85
2021/08/27 02:17:24;;;;;;;3.17;1.20;;;;;;;;;;5021474;28;20050;-84
2021/08/27 02:19:51;;;;;;;5.28;1.30;;;;;;;;;;5020060;28;20092;-85
2021/08/27 02:22:18;;;;;;;4.50;1.50;;;;;;;;;;5021771;28;20046;-83
2021/08/27 02:24:49;;;;;;;4.70;1.33;;;;;;;;;;5006511;28;20069;-84
2021/08/27 02:27:17;;;;;;;6.20;1.65;;;;;;;;;;5004360;28;20128;-84
2021/08/27 02:29:44;;;;;;;5.32;1.50;;;;;;;;;;5021751;28;20053;-84
2021/08/27 02:32:11;;;;;;;5.60;1.88;;;;;;;;;;5019223;28;20493;-84
2021/08/27 02:34:40;;;;;;;5.72;1.30;;;;;;;;;;5018273;28;21575;-83
2021/08/27 02:37:07;;;;;;;4.05;1.40;;;;;;;;;;5022040;28;20038;-84
2021/08/27 02:39:33;;;;;;;6.57;1.50;;;;;;;;;;5008895;28;20115;-84
2021/08/27 02:41:59;;;;;;;6.00;1.67;;;;;;;;;;5023271;28;20547;-89
2021/08/27 02:44:26;;;;;;;5.20;1.35;;;;;;;;;;5023535;28;20049;-83
2021/08/27 02:46:52;;;;;;;6.88;1.60;;;;;;;;;;5022974;28;20045;-83
2021/08/27 02:49:19;;;;;;;5.07;1.40;;;;;;;;;;5022657;28;20508;-85
2021/08/27 02:52:04;;;;;;;4.50;1.30;;;;;;;;;;5003610;28;20045;-84
2021/08/27 02:54:32;;;;;;;8.75;1.98;;;;;;;;;;5021473;28;20486;-82
2021/08/27 02:57:03;;;;;;;5.57;1.60;;;;;;;;;;5017772;28;20374;-87
2021/08/27 02:59:29;;;;;;;4.32;1.30;;;;;;;;;;5020111;28;20113;-84
2021/08/27 03:01:56;;;;;;;4.63;1.30;;;;;;;;;;5022651;28;20038;-83
2021/08/27 03:04:40;;;;;;;6.20;1.40;;;;;;;;;;5026480;28;20128;-83
2021/08/27 03:07:07;;;;;;;5.22;1.60;;;;;;;;;;5004491;28;20069;-83
2021/08/27 03:09:43;;;;;;;7.47;1.40;;;;;;;;;;5007893;28;20056;-83
2021/08/27 03:12:11;;;;;;;6.20;1.35;;;;;;;;;;5025966;28;20397;-83
2021/08/27 03:14:39;;;;;;;6.85;1.60;;;;;;;;;;5024439;28;20061;-82
2021/08/27 03:17:08;;;;;;;5.45;1.40;;;;;;;;;;5021983;28;20050;-83
2021/08/27 03:19:55;;;;;;;6.35;1.50;;;;;;;;;;5005243;28;20403;-83
2021/08/27 03:22:22;;;;;;;7.13;1.55;;;;;;;;;;5005203;28;20041;-82
2021/08/27 03:25:08;;;;;;;5.35;1.63;;;;;;;;;;5020991;28;20084;-82
2021/08/27 03:27:41;;;;;;;5.45;1.75;;;;;;;;;;5023123;28;20064;-82
2021/08/27 03:30:09;;;;;;;5.40;1.90;;;;;;;;;;5021046;28;20045;-82
2021/08/27 03:32:36;;;;;;;4.45;1.60;;;;;;;;;;5007293;28;20398;-82
2021/08/27 03:35:02;;;;;;;6.40;1.67;;;;;;;;;;5021206;28;20131;-87
2021/08/27 03:37:29;;;;;;;5.68;2.03;;;;;;;;;;5018175;28;20065;-82
2021/08/27 03:39:56;;;;;;;4.75;1.40;;;;;;;;;;5020822;28;20402;-85
2021/08/27 03:42:22;;;;;;;3.90;1.27;;;;;;;;;;5004316;28;20667;-82
2021/08/27 03:44:49;;;;;;;11.73;1.45;;;;;;;;;;5017684;28;20046;-81
2021/08/27 03:47:16;;;;;;;6.10;1.58;;;;;;;;;;5017941;28;20131;-84
2021/08/27 03:49:43;;;;;;;4.45;1.40;;;;;;;;;;5022283;28;20045;-83
2021/08/27 03:52:10;;;;;;;7.82;2.00;;;;;;;;;;5019849;28;20057;-82
2021/08/27 03:54:36;;;;;;;8.18;2.08;;;;;;;;;;5020335;28;20085;-82
2021/08/27 03:57:03;;;;;;;7.57;1.98;;;;;;;;;;5022744;28;20045;-86
2021/08/27 03:59:30;;;;;;;11.15;1.90;;;;;;;;;;5019206;28;20037;-82
2021/08/27 04:01:57;;;;;;;9.48;1.80;;;;;;;;;;5015307;28;20038;-82
2021/08/27 04:04:24;;;;;;;8.43;1.95;;;;;;;;;;5008212;28;20041;-82
2021/08/27 04:06:53;;;;;;;5.85;1.73;;;;;;;;;;5003162;28;20055;-82
2021/08/27 04:09:19;;;;;;;7.63;2.13;;;;;;;;;;5019687;28;20053;-82
2021/08/27 04:11:45;;;;;;;10.05;2.10;;;;;;;;;;5004043;28;20050;-82
2021/08/27 04:14:11;;;;;;;9.95;2.20;;;;;;;;;;5020169;28;20088;-82
2021/08/27 04:16:42;;;;;;;10.88;2.25;;;;;;;;;;5021881;28;20046;-84
2021/08/27 04:19:08;;;;;;;8.05;2.42;;;;;;;;;;5015383;28;20049;-83
2021/08/27 04:21:34;;;;;;;6.93;2.10;;;;;;;;;;5019493;28;20117;-83
2021/08/27 04:24:00;;;;;;;8.52;2.55;;;;;;;;;;5022690;28;20049;-88
2021/08/27 04:26:26;;;;;;;9.57;3.33;;;;;;;;;;5022658;28;20535;-84
2021/08/27 04:28:52;;;;;;;8.38;2.30;;;;;;;;;;5020487;28;20490;-83
2021/08/27 04:31:19;;;;;;;7.13;1.98;;;;;;;;;;5020732;28;20132;-85
2021/08/27 04:33:45;;;;;;;10.10;2.30;;;;;;;;;;5020713;28;20438;-82
2021/08/27 04:36:11;;;;;;;5.10;1.55;;;;;;;;;;5008673;28;20045;-83
2021/08/27 04:38:37;;;;;;;5.50;1.33;;;;;;;;;;5006623;28;20397;-83
2021/08/27 04:41:03;;;;;;;5.22;1.40;;;;;;;;;;5021732;28;20050;-89
2021/08/27 04:43:29;;;;;;;4.30;1.30;;;;;;;;;;5005820;28;20128;-82
2021/08/27 04:45:55;;;;;;;6.53;1.60;;;;;;;;;;5020207;28;20049;-84
2021/08/27 04:48:21;;;;;;;7.68;2.35;;;;;;;;;;5019429;28;20046;-83
2021/08/27 04:50:47;;;;;;;7.03;1.67;;;;;;;;;;5023595;28;20074;-83
2021/08/27 04:53:13;;;;;;;8.13;1.92;;;;;;;;;;5019479;28;20045;-83
2021/08/27 04:55:39;;;;;;;10.13;1.90;;;;;;;;;;5006091;28;20037;-84
2021/08/27 04:58:06;;;;;;;12.77;2.50;;;;;;;;;;5009067;28;20048;-84
2021/08/27 05:00:32;;;;;;;9.32;1.98;;;;;;;;;;5026044;28;20420;-84
2021/08/27 05:02:58;;;;;;;10.70;2.00;;;;;;;;;;4995821;28;20057;-84
2021/08/27 05:05:24;;;;;;;10.40;2.72;;;;;;;;;;5017490;28;20033;-84
2021/08/27 05:07:50;;;;;;;9.75;2.42;;;;;;;;;;5015414;28;20046;-84
2021/08/27 05:10:16;;;;;;;11.00;2.60;;;;;;;;;;5032511;28;20477;-85
2021/08/27 05:12:42;;;;;;;10.40;2.42;;;;;;;;;;5031948;28;20048;-84
2021/08/27 05:15:09;;;;;;;10.68;2.50;;;;;;;;;;5021628;28;20061;-84
2021/08/27 05:17:35;;;;;;;14.60;2.70;;;;;;;;;;5011831;28;20049;-83
2021/08/27 05:20:01;;;;;;;11.95;2.80;;;;;;;;;;4995434;28;20042;-85
2021/08/27 05:22:27;;;;;;;6.95;1.92;;;;;;;;;;5011555;28;20105;-86
2021/08/27 05:24:53;;;;;;;10.32;2.63;;;;;;;;;;4997606;28;20049;-85
2021/08/27 05:27:19;;;;;;;7.57;2.10;;;;;;;;;;5015107;28;20506;-86
2021/08/27 05:29:45;;;;;;;6.68;1.85;;;;;;;;;;4999439;28;20406;-83
2021/08/27 05:32:12;;;;;;;7.38;2.17;;;;;;;;;;4999171;28;20394;-83
2021/08/27 05:34:38;;;;;;;5.63;1.30;;;;;;;;;;5023055;28;20045;-84
2021/08/27 05:37:04;;;;;;;4.53;1.65;;;;;;;;;;5035292;28;20175;-90
2021/08/27 05:39:30;;;;;;;7.22;1.90;;;;;;;;;;5044462;28;20106;-83
2021/08/27 05:41:57;;;;;;;5.53;1.45;;;;;;;;;;5034381;28;20528;-84
2021/08/27 05:44:23;;;;;;;5.85;1.75;;;;;;;;;;5034031;28;20195;-84
2021/08/27 05:46:50;;;;;;;6.25;2.25;;;;;;;;;;5035239;28;20378;-83
2021/08/27 05:49:16;;;;;;;5.30;1.70;;;;;;;;;;5034706;28;20141;-84
2021/08/27 05:51:42;;;;;;;7.35;1.90;;;;;;;;;;5018362;28;20049;-83
2021/08/27 05:54:09;;;;;;;4.93;2.10;;;;;;;;;;5034559;28;20408;-84
2021/08/27 05:56:35;;;;;;;5.85;1.70;;;;;;;;;;5034974;28;20053;-83
2021/08/27 05:59:01;;;;;;;9.82;2.05;;;;;;;;;;5034680;28;20049;-84
2021/08/27 06:01:27;;;;;;;7.45;1.90;;;;;;;;;;5018360;28;20087;-84
2021/08/27 06:03:53;;;;;;;6.55;1.92;;;;;;;;;;5015325;28;20088;-83
2021/08/27 06:06:19;;;;;;;6.63;2.10;;;;;;;;;;5028403;28;20045;-82
2021/08/27 06:08:45;;;;;;;13.75;2.45;;;;;;;;;;5018540;28;20052;-83
2021/08/27 06:11:11;;;;;;;9.85;2.30;;;;;;;;;;5034810;28;20625;-84
2021/08/27 06:13:37;;;;;;;12.23;2.40;;;;;;;;;;5018316;28;20139;-83
2021/08/27 06:16:04;;;;;;;14.07;2.53;;;;;;;;;;5018257;28;20124;-90
2021/08/27 06:18:30;;;;;;;9.25;2.20;;;;;;;;;;5018482;28;20049;-83
2021/08/27 06:20:56;;;;;;;7.45;2.05;;;;;;;;;;5034818;28;20116;-83
2021/08/27 06:23:23;;;;;;;10.23;2.05;;;;;;;;;;5017975;28;20053;-84
2021/08/27 06:25:49;;;;;;;13.48;2.97;;;;;;;;;;5034394;28;20037;-83
2021/08/27 06:28:15;;;;;;;11.57;2.70;;;;;;;;;;5017424;28;20057;-83
2021/08/27 06:30:42;;;;;;;12.25;2.45;;;;;;;;;;5018187;28;20049;-83
2021/08/27 06:33:08;;;;;;;11.63;2.55;;;;;;;;;;5034435;28;20065;-84
2021/08/27 06:35:34;;;;;;;11.25;2.38;;;;;;;;;;5009821;28;20048;-83
2021/08/27 06:40:46;;;;;;;8.50;1.95;;;;;;;;;;5014945;28;20049;-85
2021/08/27 06:43:12;;;;;;;10.70;2.00;;;;;;;;;;5026026;28;20056;-84
2021/08/27 06:45:38;;;;;;;5.50;1.73;;;;;;;;;;5017485;28;20151;-83
2021/08/27 06:48:04;;;;;;;8.02;1.80;;;;;;;;;;5034472;28;20045;-84
2021/08/27 06:50:30;;;;;;;8.60;2.00;;;;;;;;;;5034426;28;20061;-83
2021/08/27 06:52:57;;;;;;;6.13;1.60;;;;;;;;;;5019238;28;20096;-83
2021/08/27 06:55:23;;;;;;;5.85;1.33;;;;;;;;;;5014122;28;20878;-83
2021/08/27 06:57:49;;;;;;;6.00;1.65;;;;;;;;;;5020846;28;20038;-83
2021/08/27 07:00:15;;;;;;;9.10;1.60;;;;;;;;;;5033761;28;20064;-84
2021/08/27 07:02:43;;;;;;;8.13;1.67;;;;;;;;;;5031753;28;20462;-83
2021/08/27 07:05:10;;;;;;;7.22;1.48;;;;;;;;;;5032557;28;20089;-83
2021/08/27 07:07:36;;;;;;;9.15;1.50;;;;;;;;;;5033845;28;20064;-83
2021/08/27 07:10:03;;;;;;;6.80;1.80;;;;;;;;;;5033305;28;20045;-83
2021/08/27 07:12:29;;;;;;;7.78;1.83;;;;;;;;;;5032130;28;20516;-83
2021/08/27 07:14:55;;;;;;;6.85;1.73;;;;;;;;;;5017182;28;20038;-83
2021/08/27 07:17:22;;;;;;;8.93;2.15;;;;;;;;;;5033247;28;20052;-83
2021/08/27 07:19:49;;;;;;;9.20;2.05;;;;;;;;;;5033639;28;20046;-82
2021/08/27 07:22:15;;;;;;;9.90;1.70;;;;;;;;;;5033136;28;20389;-83
2021/08/27 07:24:41;;;;;;;7.30;1.70;;;;;;;;;;5033594;28;20037;-83
2021/08/27 07:27:09;;;;;;;10.23;1.80;;;;;;;;;;5033441;28;20401;-88
2021/08/27 07:29:36;;;;;;;7.22;1.60;;;;;;;;;;5032811;28;20529;-83
2021/08/27 07:32:02;;;;;;;7.10;1.50;;;;;;;;;;5043407;28;20126;-84
2021/08/27 07:34:28;;;;;;;7.95;1.80;;;;;;;;;;5032686;28;20045;-84
2021/08/27 07:36:54;;;;;;;7.28;1.90;;;;;;;;;;5016763;28;20045;-83
2021/08/27 07:39:20;;;;;;;9.35;1.58;;;;;;;;;;5016395;28;20149;-84
2021/08/27 07:41:46;;;;;;;6.85;1.50;;;;;;;;;;5032926;28;20041;-84
2021/08/27 07:44:12;;;;;;;6.93;1.60;;;;;;;;;;5032730;28;20099;-84
2021/08/27 07:46:39;;;;;;;5.57;1.90;;;;;;;;;;5016371;28;20055;-83
2021/08/27 07:49:05;;;;;;;9.43;1.95;;;;;;;;;;5032881;28;20046;-88
2021/08/27 07:51:31;;;;;;;9.07;1.20;;;;;;;;;;5016258;28;20047;-84
2021/08/27 07:53:57;;;;;;;7.90;1.40;;;;;;;;;;5016752;28;20041;-83
2021/08/27 07:56:23;;;;;;;8.18;1.70;;;;;;;;;;5032984;28;20064;-83
2021/08/27 07:58:49;;;;;;;11.65;2.20;;;;;;;;;;5028996;28;20046;-84
2021/08/27 08:01:15;;;;;;;10.90;1.90;;;;;;;;;;5016654;28;20045;-87
2021/08/27 08:03:41;;;;;;;6.72;1.40;;;;;;;;;;5032947;28;20494;-86
2021/08/27 08:06:08;;;;;;;4.88;1.52;;;;;;;;;;5015769;28;20089;-88
2021/08/27 08:08:34;;;;;;;3.50;1.33;;;;;;;;;;5016341;28;20049;-84
2021/08/27 08:11:00;;;;;;;7.07;1.90;;;;;;;;;;5032463;28;20046;-84
2021/08/27 08:13:26;;;;;;;6.28;1.58;;;;;;;;;;5015998;28;20052;-84
2021/08/27 08:15:52;;;;;;;6.82;1.90;;;;;;;;;;5016219;28;20140;-84
2021/08/27 08:18:18;;;;;;;7.82;2.00;;;;;;;;;;5032087;28;20057;-83
2021/08/27 08:20:44;;;;;;;5.15;1.42;;;;;;;;;;5015959;28;20049;-83
2021/08/27 08:23:10;;;;;;;6.95;1.40;;;;;;;;;;5015269;28;20049;-84
2021/08/27 08:25:36;;;;;;;5.35;1.42;;;;;;;;;;5015666;28;20077;-83
2021/08/27 08:28:05;;;;;;;6.20;1.58;;;;;;;;;;5030456;28;20539;-84
2021/08/27 08:30:31;;;;;;;4.90;1.40;;;;;;;;;;5032272;28;20497;-84
2021/08/27 08:32:57;;;;;;;7.15;1.90;;;;;;;;;;5032879;28;20055;-84
2021/08/27 08:35:23;;;;;;;7.60;2.10;;;;;;;;;;5032033;28;20045;-84
2021/08/27 08:37:49;;;;;;;10.35;2.30;;;;;;;;;;5016539;28;20111;-86
2021/08/27 08:40:15;;;;;;;9.20;2.13;;;;;;;;;;5031815;28;20053;-86
2021/08/27 08:42:42;;;;;;;8.55;2.05;;;;;;;;;;5016049;28;20046;-86
2021/08/27 08:45:08;;;;;;;9.73;1.88;;;;;;;;;;5015380;28;20140;-89
2021/08/27 08:47:37;;;;;;;10.23;2.20;;;;;;;;;;5032814;28;20095;-84
2021/08/27 08:50:03;;;;;;;10.25;2.10;;;;;;;;;;5032639;28;20037;-87
2021/08/27 08:52:30;;;;;;;10.70;2.50;;;;;;;;;;5031047;28;20497;-86
2021/08/27 08:54:56;;;;;;;9.52;2.47;;;;;;;;;;5032320;28;20053;-85
2021/08/27 08:57:22;;;;;;;9.05;2.22;;;;;;;;;;5014783;28;20049;-86
2021/08/27 08:59:51;;;;;;;13.52;2.55;;;;;;;;;;5031124;28;20049;-84
2021/08/27 09:02:19;;;;;;;10.38;2.28;;;;;;;;;;5031962;28;20053;-85
2021/08/27 09:04:45;;;;;;;8.50;2.25;;;;;;;;;;5015523;28;20049;-86
2021/08/27 09:07:11;;;;;;;8.82;2.20;;;;;;;;;;5025676;28;20052;-85
2021/08/27 09:09:37;;;;;;;7.45;2.30;;;;;;;;;;5011500;28;20049;-86
2021/08/27 09:12:15;;;;;;;10.43;2.50;;;;;;;;;;5011585;28;20156;-85
2021/08/27 09:14:41;;;;;;;10.50;2.55;;;;;;;;;;4994634;28;20390;-84
2021/08/27 09:17:08;;;;;;;12.18;2.70;;;;;;;;;;5005075;28;20112;-86
2021/08/27 09:19:49;;;;;;;12.30;2.15;;;;;;;;;;5031185;28;20045;-84
2021/08/27 09:22:15;;;;;;;12.70;2.90;;;;;;;;;;5025856;28;20505;-84
2021/08/27 09:24:41;;;;;;;8.30;2.25;;;;;;;;;;5008615;28;20165;-84
2021/08/27 09:27:08;;;;;;;7.65;2.17;;;;;;;;;;5014593;28;20045;-86
2021/08/27 09:29:39;;;;;;;6.22;2.20;;;;;;;;;;5014372;28;20056;-87
2021/08/27 09:32:18;;;;;;;8.43;2.20;;;;;;;;;;5030174;28;20052;-85
2021/08/27 09:34:45;;;;;;;8.68;2.30;;;;;;;;;;5027849;28;20049;-84
2021/08/27 09:37:11;;;;;;;7.90;2.42;;;;;;;;;;5021987;28;20046;-85
2021/08/27 09:39:37;;;;;;;13.98;2.90;;;;;;;;;;5030475;28;20045;-82
2021/08/27 09:42:03;;;;;;;9.20;2.60;;;;;;;;;;5014143;28;20187;-84
2021/08/27 09:44:30;;;;;;;9.30;2.92;;;;;;;;;;5029365;28;20096;-85
2021/08/27 09:47:00;;;;;;;8.15;2.80;;;;;;;;;;5013348;28;20045;-84
2021/08/27 09:49:28;;;;;;;8.80;2.22;;;;;;;;;;5029337;28;20577;-84
2021/08/27 09:51:55;;;;;;;11.68;2.58;;;;;;;;;;5013736;28;20123;-83
2021/08/27 09:54:22;;;;;;;7.53;2.17;;;;;;;;;;5012821;28;20393;-82
2021/08/27 09:56:49;;;;;;;7.50;2.45;;;;;;;;;;5028905;28;20056;-85
2021/08/27 09:59:16;;;;;;;7.43;2.20;;;;;;;;;;5011510;28;20131;-84
2021/08/27 10:01:48;;;;;;;6.72;2.20;;;;;;;;;;5030145;28;20124;-85
2021/08/27 10:04:15;;;;;;;7.22;2.35;;;;;;;;;;5013117;28;20049;-82
2021/08/27 10:06:42;;;;;;;6.70;2.05;;;;;;;;;;5017462;28;20045;-85
2021/08/27 10:09:08;;;;;;;6.75;2.00;;;;;;;;;;5010487;28;20060;-90
2021/08/27 10:11:34;;;;;;;6.93;2.42;;;;;;;;;;5012707;28;20046;-85
2021/08/27 10:14:00;;;;;;;8.73;2.45;;;;;;;;;;5014269;28;20049;-85
2021/08/27 10:16:29;;;;;;;8.25;2.47;;;;;;;;;;5025217;28;20050;-84
2021/08/27 10:18:55;;;;;;;7.90;2.40;;;;;;;;;;5017539;28;20081;-85
2021/08/27 10:21:21;;;;;;;7.25;2.60;;;;;;;;;;4999757;28;20049;-85
2021/08/27 10:23:47;;;;;;;6.93;1.98;;;;;;;;;;5001690;28;20049;-85
2021/08/27 10:26:23;;;;;;;8.63;2.28;;;;;;;;;;5006580;28;20046;-85
2021/08/27 10:28:50;;;;;;;7.82;2.22;;;;;;;;;;4997282;28;20058;-85
2021/08/27 10:31:17;;;;;;;6.85;2.03;;;;;;;;;;5013485;28;20509;-85
2021/08/27 10:33:43;;;;;;;11.75;2.30;;;;;;;;;;5011218;28;20402;-85
2021/08/27 10:36:21;;;;;;;7.47;2.20;;;;;;;;;;5033021;28;20063;-90
2021/08/27 10:38:52;;;;;;;13.48;2.10;;;;;;;;;;5017058;28;20049;-84
2021/08/27 10:41:19;;;;;;;8.10;2.00;;;;;;;;;;5016366;28;20581;-84
2021/08/27 10:43:49;;;;;;;8.55;1.90;;;;;;;;;;5033538;28;20367;-84
2021/08/27 10:46:15;;;;;;;7.57;1.65;;;;;;;;;;5032655;28;20041;-85
2021/08/27 10:48:49;;;;;;;7.50;2.00;;;;;;;;;;5017175;28;20049;-86
2021/08/27 10:51:32;;;;;;;7.28;2.17;;;;;;;;;;5027892;28;20092;-84
2021/08/27 10:53:58;;;;;;;7.45;2.40;;;;;;;;;;5012014;28;20529;-85
2021/08/27 10:56:42;;;;;;;8.73;2.40;;;;;;;;;;5032018;28;20532;-84
2021/08/27 10:59:09;;;;;;;8.52;1.58;;;;;;;;;;5016405;28;20045;-90
2021/08/27 11:01:36;;;;;;;4.97;1.73;;;;;;;;;;5014354;28;20073;-85
2021/08/27 11:04:23;;;;;;;7.22;1.90;;;;;;;;;;5031535;28;20493;-84
2021/08/27 11:06:51;;;;;;;6.55;1.85;;;;;;;;;;5032924;28;20497;-84
2021/08/27 11:09:21;;;;;;;5.85;1.20;;;;;;;;;;5018044;28;20085;-84
2021/08/27 11:11:47;;;;;;;4.82;1.50;;;;;;;;;;5034248;28;20053;-84
2021/08/27 11:14:21;;;;;;;5.97;1.70;;;;;;;;;;5016967;28;20049;-84
2021/08/27 11:16:58;;;;;;;4.35;1.45;;;;;;;;;;5017290;28;20053;-84
2021/08/27 11:19:25;;;;;;;5.95;1.40;;;;;;;;;;5033561;28;20045;-85
2021/08/27 11:21:55;;;;;;;4.82;1.50;;;;;;;;;;5032738;28;20103;-85
2021/08/27 11:24:23;;;;;;;9.07;1.80;;;;;;;;;;5033002;28;20140;-84
2021/08/27 11:27:00;;;;;;;3.38;1.42;;;;;;;;;;5017133;28;20057;-85
2021/08/27 11:29:40;;;;;;;4.90;1.38;;;;;;;;;;5032847;28;20092;-84
2021/08/27 11:32:19;;;;;;;6.47;1.75;;;;;;;;;;5033383;28;20092;-85
2021/08/27 11:34:48;;;;;;;6.85;1.50;;;;;;;;;;5033050;28;20057;-85
2021/08/27 11:37:14;;;;;;;4.80;1.63;;;;;;;;;;5032653;28;20052;-85
2021/08/27 11:39:41;;;;;;;4.57;1.60;;;;;;;;;;5032892;28;20077;-85
2021/08/27 11:42:07;;;;;;;6.57;1.55;;;;;;;;;;5032938;28;20548;-84
2021/08/27 11:44:41;;;;;;;7.60;2.13;;;;;;;;;;5031152;28;20042;-84
2021/08/27 11:47:08;;;;;;;8.23;2.13;;;;;;;;;;5032013;28;20085;-85
2021/08/27 11:49:35;;;;;;;7.20;2.00;;;;;;;;;;5025553;28;20080;-84
2021/08/27 11:52:25;;;;;;;7.47;1.58;;;;;;;;;;5010528;28;20402;-83
2021/08/27 11:54:58;;;;;;;6.80;1.88;;;;;;;;;;4998546;28;20046;-83
2021/08/27 11:57:25;;;;;;;8.35;1.90;;;;;;;;;;5015409;28;20564;-83
2021/08/27 11:59:51;;;;;;;7.15;2.20;;;;;;;;;;5015519;28;20100;-86
2021/08/27 12:02:19;;;;;;;8.77;2.10;;;;;;;;;;5013165;28;20053;-90
2021/08/27 12:04:45;;;;;;;9.93;1.92;;;;;;;;;;5014063;28;20044;-87
2021/08/27 12:07:13;;;;;;;8.45;1.70;;;;;;;;;;5014930;28;20053;-90
2021/08/27 12:09:40;;;;;;;7.93;2.50;;;;;;;;;;5015200;28;20048;-87
2021/08/27 12:12:06;;;;;;;2.78;1.60;;;;;;;;;;5012821;28;20048;-86
2021/08/27 12:14:52;;;;;;;8.80;2.17;;;;;;;;;;5013225;28;20085;-86
2021/08/27 12:17:23;;;;;;;5.50;1.55;;;;;;;;;;5013649;28;20060;-86
2021/08/27 12:19:50;;;;;;;5.07;1.60;;;;;;;;;;5014603;28;20119;-85
2021/08/27 12:22:17;;;;;;;4.93;1.80;;;;;;;;;;5013868;28;20145;-84
2021/08/27 12:24:45;;;;;;;7.05;2.00;;;;;;;;;;5014271;28;20512;-85
2021/08/27 12:27:12;;;;;;;8.52;1.73;;;;;;;;;;5014107;28;20045;-88
2021/08/27 12:29:38;;;;;;;7.55;1.80;;;;;;;;;;5014036;28;20432;-86
2021/08/27 12:32:06;;;;;;;8.35;2.08;;;;;;;;;;5030650;28;20038;-86
2021/08/27 12:34:32;;;;;;;6.43;2.40;;;;;;;;;;5013426;28;20091;-86
2021/08/27 12:36:59;;;;;;;7.95;1.60;;;;;;;;;;5014564;28;20085;-85
2021/08/27 12:39:25;;;;;;;7.35;2.15;;;;;;;;;;5013794;28;20057;-86
2021/08/27 12:41:51;;;;;;;4.82;1.52;;;;;;;;;;5014124;28;20502;-86
2021/08/27 12:44:17;;;;;;;6.60;1.83;;;;;;;;;;5013354;28;20068;-86
2021/08/27 12:46:48;;;;;;;4.15;1.73;;;;;;;;;;5014407;28;20041;-86
2021/08/27 12:49:24;;;;;;;3.47;1.63;;;;;;;;;;5029839;28;20430;-86
2021/08/27 12:51:54;;;;;;;5.65;1.35;;;;;;;;;;4996895;28;20052;-85
2021/08/27 12:54:24;;;;;;;5.55;1.50;;;;;;;;;;4998428;28;20098;-86
2021/08/27 12:56:58;;;;;;;3.88;1.33;;;;;;;;;;5014786;28;20393;-86
2021/08/27 12:59:24;;;;;;;4.47;1.27;;;;;;;;;;4994108;28;20077;-85
2021/08/27 13:01:53;;;;;;;4.50;1.50;;;;;;;;;;5001855;28;20060;-86
2021/08/27 13:04:22;;;;;;;4.82;1.25;;;;;;;;;;4993925;28;20046;-86
2021/08/27 13:06:50;;;;;;;2.88;1.10;;;;;;;;;;5011560;28;20045;-87
2021/08/27 13:09:28;;;;;;;3.95;1.60;;;;;;;;;;5011423;28;20053;-86
2021/08/27 13:11:55;;;;;;;8.20;1.90;;;;;;;;;;5014379;28;20049;-86
2021/08/27 13:14:30;;;;;;;4.65;1.40;;;;;;;;;;5013338;28;20115;-85
2021/08/27 13:17:00;;;;;;;5.45;1.27;;;;;;;;;;5009803;28;20050;-87
2021/08/27 13:19:44;;;;;;;6.93;1.95;;;;;;;;;;5011179;28;20053;-86
2021/08/27 13:22:14;;;;;;;6.85;1.40;;;;;;;;;;5029838;28;20072;-90
2021/08/27 13:24:40;;;;;;;5.68;1.40;;;;;;;;;;5014076;28;20089;-88
2021/08/27 13:27:06;;;;;;;8.90;1.98;;;;;;;;;;5014272;28;20046;-86
2021/08/27 13:29:32;;;;;;;5.00;1.83;;;;;;;;;;5012176;28;20577;-86
2021/08/27 13:31:59;;;;;;;6.25;2.00;;;;;;;;;;5013967;28;20502;-88
2021/08/27 13:34:25;;;;;;;6.43;1.70;;;;;;;;;;5013339;28;20045;-86
2021/08/27 13:36:51;;;;;;;8.93;1.85;;;;;;;;;;5014033;28;20060;-86
2021/08/27 13:39:17;;;;;;;11.25;1.98;;;;;;;;;;5013041;28;20053;-85
2021/08/27 13:41:44;;;;;;;5.70;1.77;;;;;;;;;;5014175;28;20045;-86
2021/08/27 13:44:11;;;;;;;6.03;1.58;;;;;;;;;;5013917;28;20482;-89
2021/08/27 13:46:38;;;;;;;7.45;1.80;;;;;;;;;;5016421;28;20060;-87
2021/08/27 13:49:07;;;;;;;7.38;1.65;;;;;;;;;;5017169;28;20052;-87
2021/08/27 13:51:34;;;;;;;10.93;1.50;;;;;;;;;;5033577;28;20041;-86
2021/08/27 13:54:04;;;;;;;7.03;2.03;;;;;;;;;;5034240;28;20046;-88
2021/08/27 13:56:32;;;;;;;8.05;1.80;;;;;;;;;;5017063;28;20136;-88
2021/08/27 13:58:59;;;;;;;6.03;1.80;;;;;;;;;;5000763;28;20054;-87
2021/08/27 14:01:29;;;;;;;8.75;2.20;;;;;;;;;;5028001;28;20046;-87
2021/08/27 14:03:55;;;;;;;10.10;1.90;;;;;;;;;;5034160;28;20053;-87
2021/08/27 14:06:24;;;;;;;10.27;2.05;;;;;;;;;;5015255;28;20037;-88
2021/08/27 14:08:50;;;;;;;6.43;1.60;;;;;;;;;;5034010;28;20065;-89
2021/08/27 14:11:16;;;;;;;9.55;1.60;;;;;;;;;;5033063;28;20049;-89
2021/08/27 14:13:45;;;;;;;7.22;1.85;;;;;;;;;;5017988;28;20094;-87
2021/08/27 14:16:11;;;;;;;7.93;1.70;;;;;;;;;;5017076;28;20136;-88
2021/08/27 14:18:37;;;;;;;8.20;2.38;;;;;;;;;;5017246;28;20052;-89
2021/08/27 14:21:04;;;;;;;7.43;1.80;;;;;;;;;;5017167;28;20053;-89
2021/08/27 14:23:32;;;;;;;10.13;2.03;;;;;;;;;;5016096;28;20068;-89
2021/08/27 14:26:01;;;;;;;3.65;1.63;;;;;;;;;;5016605;28;20099;-90
2021/08/27 14:28:30;;;;;;;6.15;2.05;;;;;;;;;;5016782;28;20461;-88
2021/08/27 14:30:59;;;;;;;8.70;2.30;;;;;;;;;;5033820;28;20060;-87
2021/08/27 14:33:29;;;;;;;6.00;1.70;;;;;;;;;;5016237;28;20136;-86
2021/08/27 14:35:55;;;;;;;7.47;2.10;;;;;;;;;;5017244;28;20045;-86
2021/08/27 14:38:26;;;;;;;8.32;2.38;;;;;;;;;;5016226;28;20094;-86
2021/08/27 14:40:59;;;;;;;10.20;2.97;;;;;;;;;;5017336;28;20045;-87
2021/08/27 14:43:25;;;;;;;9.82;2.42;;;;;;;;;;5016293;28;20486;-85
2021/08/27 14:45:54;;;;;;;10.27;2.20;;;;;;;;;;5016333;28;20064;-88
2021/08/27 14:48:20;;;;;;;10.25;2.42;;;;;;;;;;5015882;28;20501;-88